createdAt,value
2019-05-25T00:03:10.917Z,51.28
2019-05-25T00:08:34.681Z,51.90
2019-05-25T00:13:59.446Z,51.77
2019-05-25T00:19:23.920Z,51.63
2019-05-25T00:24:47.961Z,51.27
2019-05-25T00:30:12.647Z,48.54
2019-05-25T00:35:36.936Z,46.76
2019-05-25T00:41:01.340Z,46.68
2019-05-25T00:46:25.117Z,47.63
2019-05-25T00:51:48.793Z,48.76
2019-05-25T00:57:13.556Z,50.03
2019-05-25T01:02:39.985Z,51.55
2019-05-25T01:08:05.015Z,52.45
2019-05-25T01:13:28.890Z,53.68
2019-05-25T01:18:52.673Z,53.76
2019-05-25T01:24:16.774Z,54.84
2019-05-25T01:29:41.294Z,55.99
2019-05-25T01:35:05.832Z,56.36
2019-05-25T01:40:31.856Z,56.95
2019-05-25T01:45:56.601Z,56.73
2019-05-25T01:51:21.752Z,58.15
2019-05-25T01:56:46.222Z,58.10
2019-05-25T02:02:10.293Z,59.15
2019-05-25T02:07:33.936Z,60.39
2019-05-25T02:12:58.148Z,61.78
2019-05-25T02:18:21.804Z,62.70
2019-05-25T02:23:45.611Z,63.47
2019-05-25T02:29:09.435Z,64.69
2019-05-25T02:34:34.158Z,65.48
2019-05-25T02:39:58.901Z,66.36
2019-05-25T02:45:23.210Z,66.89
2019-05-25T02:50:48.490Z,67.70
2019-05-25T02:56:12.224Z,68.82
2019-05-25T03:01:37.039Z,69.30
2019-05-25T03:07:02.929Z,69.13
2019-05-25T03:12:28.422Z,69.58
2019-05-25T03:17:52.152Z,70.28
2019-05-25T03:23:16.970Z,70.93
2019-05-25T03:28:41.452Z,71.76
2019-05-25T03:34:05.913Z,73.09
2019-05-25T03:39:30.573Z,73.04
2019-05-25T03:44:54.932Z,73.45
2019-05-25T03:50:19.541Z,74.25
2019-05-25T03:55:44.391Z,75.05
2019-05-25T04:01:08.225Z,74.82
2019-05-25T04:06:33.029Z,75.42
2019-05-25T04:11:57.686Z,74.61
2019-05-25T04:17:22.558Z,71.87
2019-05-25T04:22:47.519Z,68.06
2019-05-25T04:28:12.229Z,63.98
2019-05-25T04:33:36.646Z,62.05
2019-05-25T04:39:00.571Z,60.29
2019-05-25T04:44:27.204Z,60.12
2019-05-25T04:49:51.961Z,60.88
2019-05-25T04:55:17.694Z,62.49
2019-05-25T05:00:41.447Z,64.84
2019-05-25T05:06:05.965Z,66.06
2019-05-25T05:11:30.549Z,64.35
2019-05-25T05:16:55.789Z,63.36
2019-05-25T05:22:20.241Z,63.20
2019-05-25T05:27:44.160Z,63.55
2019-05-25T05:33:08.477Z,60.61
2019-05-25T05:38:34.502Z,60.56
2019-05-25T05:43:58.746Z,58.66
2019-05-25T05:49:25.490Z,58.95
2019-05-25T05:54:52.466Z,55.24
2019-05-25T06:00:18.672Z,52.45
2019-05-25T06:05:42.710Z,51.30
2019-05-25T06:11:07.707Z,49.38
2019-05-25T06:16:32.216Z,47.89
2019-05-25T06:21:56.719Z,50.39
2019-05-25T06:27:27.643Z,50.09
2019-05-25T06:32:46.855Z,53.44
2019-05-25T06:38:11.010Z,57.18
2019-05-25T06:43:35.768Z,57.94
2019-05-25T06:48:59.667Z,54.65
2019-05-25T06:54:23.330Z,53.75
2019-05-25T06:59:47.336Z,54.39
2019-05-25T07:05:12.482Z,50.39
2019-05-25T07:10:37.224Z,51.23
2019-05-25T07:16:02.493Z,48.74
2019-05-25T07:21:27.605Z,53.10
2019-05-25T07:26:52.945Z,54.96
2019-05-25T07:32:16.908Z,54.05
2019-05-25T07:37:40.670Z,54.46
2019-05-25T07:43:05.994Z,53.84
2019-05-25T07:48:30.642Z,53.65
2019-05-25T07:53:55.308Z,53.35
2019-05-25T07:59:19.431Z,50.32
2019-05-25T08:04:43.887Z,51.61
2019-05-25T08:10:08.912Z,50.87
2019-05-25T08:15:33.051Z,52.89
2019-05-25T08:20:56.705Z,51.01
2019-05-25T08:26:21.534Z,48.65
2019-05-25T08:31:46.003Z,49.68
2019-05-25T08:37:10.521Z,53.50
2019-05-25T08:42:35.025Z,54.74
2019-05-25T08:47:59.916Z,54.18
2019-05-25T08:53:39.953Z,53.94
2019-05-25T08:58:49.176Z,56.21
2019-05-25T09:04:14.237Z,56.59
2019-05-25T09:09:38.998Z,55.49
2019-05-25T09:15:05.892Z,55.06
2019-05-25T09:20:28.500Z,54.10
2019-05-25T09:25:53.100Z,54.23
2019-05-25T09:31:17.832Z,56.84
2019-05-25T09:36:41.714Z,57.71
2019-05-25T09:42:06.317Z,58.44
2019-05-25T09:47:30.913Z,58.04
2019-05-25T09:52:55.844Z,57.58
2019-05-25T09:58:20.648Z,55.49
2019-05-25T10:03:44.504Z,55.16
2019-05-25T10:09:08.797Z,55.93
2019-05-25T10:14:33.287Z,56.57
2019-05-25T10:19:57.773Z,53.59
2019-05-25T10:25:21.968Z,52.33
2019-05-25T10:30:45.997Z,49.38
2019-05-25T10:36:10.809Z,51.16
2019-05-25T10:41:35.270Z,51.94
2019-05-25T10:46:59.188Z,53.57
2019-05-25T10:52:23.915Z,54.77
2019-05-25T10:57:47.837Z,53.60
2019-05-25T11:03:11.659Z,52.17
2019-05-25T11:08:36.089Z,49.54
2019-05-25T11:14:01.109Z,49.41
2019-05-25T11:19:25.765Z,51.03
2019-05-25T11:24:49.684Z,48.78
2019-05-25T11:30:13.874Z,49.23
2019-05-25T11:35:38.323Z,50.37
2019-05-25T11:41:02.122Z,51.71
2019-05-25T11:46:26.051Z,49.98
2019-05-25T11:51:49.652Z,49.37
2019-05-25T11:57:14.065Z,49.92
2019-05-25T12:02:37.948Z,46.91
2019-05-25T12:08:02.928Z,46.91
2019-05-25T12:13:27.339Z,48.38
2019-05-25T12:18:52.006Z,46.28
2019-05-25T12:24:16.495Z,48.29
2019-05-25T12:29:40.872Z,48.41
2019-05-25T12:35:06.045Z,49.46
2019-05-25T12:40:30.609Z,50.96
2019-05-25T12:45:55.036Z,51.15
2019-05-25T12:51:19.761Z,49.82
2019-05-25T12:56:44.446Z,51.11
2019-05-25T13:02:08.318Z,49.73
2019-05-25T13:07:32.318Z,47.93
2019-05-25T13:12:57.779Z,49.73
2019-05-25T13:18:22.124Z,47.91
2019-05-25T13:23:46.591Z,44.04
2019-05-25T13:29:11.163Z,46.12
2019-05-25T13:34:35.411Z,46.76
2019-05-25T13:39:59.860Z,43.67
2019-05-25T13:45:23.806Z,43.67
2019-05-25T13:50:47.668Z,45.86
2019-05-25T13:56:12.586Z,46.32
2019-05-25T14:01:37.283Z,42.60
2019-05-25T14:07:01.326Z,42.41
2019-05-25T14:12:25.490Z,43.43
2019-05-25T14:17:49.379Z,46.31
2019-05-25T14:23:14.048Z,48.82
2019-05-25T14:28:37.680Z,49.40
2019-05-25T14:34:02.196Z,48.67
2019-05-25T14:39:26.869Z,48.66
2019-05-25T14:44:51.618Z,47.98
2019-05-25T14:50:17.349Z,47.41
2019-05-25T14:55:41.834Z,45.35
2019-05-25T15:01:05.769Z,47.80
2019-05-25T15:06:30.678Z,47.70
2019-05-25T15:11:54.632Z,47.83
2019-05-25T15:17:18.283Z,50.45
2019-05-25T15:22:46.140Z,49.07
2019-05-25T15:28:08.347Z,48.29
2019-05-25T15:33:32.874Z,49.12
2019-05-25T15:38:57.083Z,50.56
2019-05-25T15:44:21.909Z,48.66
2019-05-25T15:49:45.650Z,45.96
2019-05-25T15:55:10.684Z,45.80
2019-05-25T16:00:46.792Z,50.02
2019-05-25T16:06:11.115Z,46.97
2019-05-25T16:11:36.804Z,46.93
2019-05-25T16:17:00.471Z,48.38
2019-05-25T16:22:26.188Z,48.80
2019-05-25T16:27:50.496Z,50.82
2019-05-25T16:33:15.483Z,51.94
2019-05-25T16:38:40.182Z,53.25
2019-05-25T16:44:05.305Z,52.96
2019-05-25T16:49:30.182Z,53.41
2019-05-25T16:54:54.919Z,53.61
2019-05-25T17:00:26.917Z,54.94
2019-05-25T17:05:51.366Z,55.79
2019-05-25T17:11:15.492Z,54.77
2019-05-25T17:16:40.315Z,54.41
2019-05-25T17:22:04.802Z,53.63
2019-05-25T17:27:29.593Z,53.82
2019-05-25T17:32:54.760Z,53.46
2019-05-25T17:38:19.741Z,53.75
2019-05-25T17:43:44.512Z,54.84
2019-05-25T17:49:09.312Z,55.04
2019-05-25T17:54:33.009Z,55.30
2019-05-25T17:59:59.586Z,55.09
2019-05-25T18:05:23.331Z,54.82
2019-05-25T18:10:53.266Z,55.93
2019-05-25T18:16:13.348Z,54.83
2019-05-25T18:21:37.891Z,55.71
2019-05-25T18:27:01.761Z,56.73
2019-05-25T18:32:25.538Z,57.24
2019-05-25T18:37:49.943Z,57.35
2019-05-25T18:43:14.497Z,57.66
2019-05-25T18:48:39.430Z,58.28
2019-05-25T18:54:03.435Z,59.36
2019-05-25T18:59:27.293Z,60.17
2019-05-25T19:04:59.419Z,61.23
2019-05-25T19:10:17.732Z,61.25
2019-05-25T19:15:42.619Z,62.62
2019-05-25T19:21:06.529Z,63.58
2019-05-25T19:26:31.048Z,64.38
2019-05-25T19:31:55.065Z,65.39
2019-05-25T19:37:19.711Z,65.81
2019-05-25T19:42:44.193Z,65.36
2019-05-25T19:48:08.943Z,65.28
2019-05-25T19:53:32.619Z,65.78
2019-05-25T19:58:56.529Z,65.97
2019-05-25T20:04:21.411Z,67.44
2019-05-25T20:09:45.107Z,69.29
2019-05-25T20:15:11.124Z,71.64
2019-05-25T20:20:35.118Z,72.24
2019-05-25T20:25:59.660Z,73.27
2019-05-25T20:31:24.344Z,74.11
2019-05-25T20:36:48.005Z,74.54
2019-05-25T20:42:15.020Z,76.11
2019-05-25T20:47:38.469Z,76.62
2019-05-25T20:53:02.957Z,77.96
2019-05-25T20:58:27.853Z,78.48
2019-05-25T21:03:51.540Z,79.21
2019-05-25T21:09:15.498Z,79.95
2019-05-25T21:14:40.409Z,80.48
2019-05-25T21:20:05.015Z,81.77
2019-05-25T21:25:29.606Z,80.73
2019-05-25T21:30:54.070Z,81.00
2019-05-25T21:36:18.657Z,82.20
2019-05-25T21:41:43.082Z,82.37
2019-05-25T21:47:07.742Z,82.55
2019-05-25T21:52:31.348Z,82.62
2019-05-25T21:57:56.026Z,82.15
2019-05-25T22:03:20.258Z,82.79
2019-05-25T22:08:44.840Z,83.01
2019-05-25T22:14:09.602Z,83.66
2019-05-25T22:19:35.042Z,83.22
2019-05-25T22:24:59.791Z,82.81
2019-05-25T22:30:23.977Z,82.54
2019-05-25T22:35:47.968Z,82.44
2019-05-25T22:41:12.508Z,82.93
2019-05-25T22:46:36.699Z,83.18
2019-05-25T22:52:01.454Z,83.72
2019-05-25T22:57:27.362Z,84.55
2019-05-25T23:02:51.450Z,85.48
2019-05-25T23:08:16.218Z,85.25
2019-05-25T23:13:40.082Z,85.63
2019-05-25T23:19:04.635Z,86.43
2019-05-25T23:24:28.990Z,86.70
2019-05-25T23:29:52.808Z,87.41
2019-05-25T23:35:17.438Z,88.74
2019-05-25T23:40:41.931Z,89.99
2019-05-25T23:46:06.705Z,90.37
2019-05-25T23:51:31.256Z,90.80
2019-05-25T23:56:56.268Z,90.74
